Time;durP1;ratioP1;P1;durP2;ratioP2;P2;SDS_P1;SDS_P2;PMS_P1;PMS_P2;Temp;Humidity;BMP_temperature;BMP_pressure;BME280_temperature;BME280_humidity;BME280_pressure;Samples;Min_cycle;Max_cycle;Signal;HPM_P1;HPM_P2
2024/02/20 00:00:35;;;;;;;5.30;2.60;;;6.90;99.90;;;;;;493989;237;27965;-73
2024/02/20 00:02:36;;;;;;;4.70;2.30;;;6.90;99.90;;;;;;493980;241;28209;-73
2024/02/20 00:04:38;;;;;;;5.63;2.50;;;6.90;99.90;;;;;;493956;241;28542;-74
2024/02/20 00:06:39;;;;;;;4.63;2.43;;;6.80;99.90;;;;;;493915;241;28396;-73
2024/02/20 00:08:40;;;;;;;8.48;2.60;;;6.70;99.90;;;;;;493948;241;28459;-73
2024/02/20 00:10:41;;;;;;;2.90;1.97;;;6.70;99.90;;;;;;494004;241;27597;-73
2024/02/20 00:12:44;;;;;;;5.47;2.35;;;6.60;99.90;;;;;;493997;241;28503;-73
2024/02/20 00:14:44;;;;;;;3.45;2.60;;;6.50;99.90;;;;;;493963;241;27608;-74
2024/02/20 00:16:49;;;;;;;8.90;2.80;;;6.50;99.90;;;;;;493902;241;27548;-73
2024/02/20 00:18:52;;;;;;;4.37;2.83;;;6.50;99.90;;;;;;493840;241;27525;-74
2024/02/20 00:20:51;;;;;;;4.17;2.10;;;6.50;99.90;;;;;;493859;241;28376;-74
2024/02/20 00:22:52;;;;;;;3.67;2.35;;;6.60;99.90;;;;;;493931;241;28532;-74
2024/02/20 00:24:53;;;;;;;3.53;2.10;;;6.60;99.90;;;;;;493961;237;28148;-74
2024/02/20 00:26:55;;;;;;;3.75;2.25;;;6.60;99.90;;;;;;493930;241;28491;-73
2024/02/20 00:28:56;;;;;;;3.60;2.20;;;6.60;99.90;;;;;;493916;241;27529;-74
2024/02/20 00:30:57;;;;;;;6.43;2.57;;;6.60;99.90;;;;;;493949;241;28190;-73
2024/02/20 00:32:58;;;;;;;8.80;2.30;;;6.50;99.90;;;;;;493943;241;28064;-73
2024/02/20 00:35:00;;;;;;;3.00;2.42;;;6.40;99.90;;;;;;493989;241;27533;-73
2024/02/20 00:37:01;;;;;;;6.10;2.40;;;6.40;99.90;;;;;;493958;241;27475;-73
2024/02/20 00:39:03;;;;;;;4.45;2.45;;;6.30;99.90;;;;;;493982;241;28847;-73
2024/02/20 00:41:03;;;;;;;4.20;2.10;;;6.30;99.90;;;;;;493973;241;27986;-72
2024/02/20 00:43:05;;;;;;;4.70;2.65;;;6.10;99.90;;;;;;493989;241;28454;-73
2024/02/20 00:45:06;;;;;;;3.53;1.85;;;6.10;99.90;;;;;;494009;241;27596;-74
2024/02/20 00:47:09;;;;;;;4.00;1.90;;;6.10;99.90;;;;;;493944;241;27502;-73
2024/02/20 00:49:09;;;;;;;2.27;2.10;;;6.10;99.90;;;;;;493920;241;27508;-73
2024/02/20 00:51:10;;;;;;;5.70;2.20;;;6.10;99.90;;;;;;493989;241;28830;-74
2024/02/20 00:53:13;;;;;;;3.53;2.17;;;6.10;99.90;;;;;;493994;241;28792;-71
2024/02/20 00:55:13;;;;;;;7.30;2.47;;;6.10;99.90;;;;;;493799;241;27633;-74
2024/02/20 00:57:14;;;;;;;4.07;2.30;;;6.00;99.90;;;;;;493918;241;28789;-71
2024/02/20 00:59:15;;;;;;;8.23;1.90;;;6.00;99.90;;;;;;493958;241;28673;-72
2024/02/20 01:01:17;;;;;;;3.95;2.10;;;6.00;99.90;;;;;;493998;241;28083;-73
2024/02/20 01:03:17;;;;;;;2.17;1.77;;;6.00;99.90;;;;;;493989;241;27522;-74
2024/02/20 01:05:19;;;;;;;4.18;2.20;;;6.00;99.90;;;;;;493971;241;27518;-74
2024/02/20 01:07:20;;;;;;;4.75;2.47;;;6.00;99.90;;;;;;493589;237;28087;-73
2024/02/20 01:09:21;;;;;;;2.47;1.85;;;5.90;99.90;;;;;;494016;241;28085;-71
2024/02/20 01:11:22;;;;;;;3.45;2.45;;;6.00;99.90;;;;;;493971;241;28035;-73
2024/02/20 01:13:24;;;;;;;7.40;2.60;;;6.00;99.90;;;;;;493935;241;27467;-73
2024/02/20 01:15:25;;;;;;;4.18;2.50;;;5.90;99.90;;;;;;493972;241;27572;-74
2024/02/20 01:17:26;;;;;;;4.95;2.20;;;5.90;99.90;;;;;;493929;241;27592;-73
2024/02/20 01:19:27;;;;;;;3.45;2.25;;;5.90;99.90;;;;;;493983;241;27544;-73
2024/02/20 01:21:30;;;;;;;6.75;2.17;;;5.80;99.90;;;;;;493957;241;28034;-74
2024/02/20 01:23:30;;;;;;;3.95;2.20;;;5.80;99.90;;;;;;493883;239;27938;-73
2024/02/20 01:25:31;;;;;;;5.25;2.10;;;5.80;99.90;;;;;;493972;237;27506;-73
2024/02/20 01:27:32;;;;;;;4.47;2.58;;;5.80;99.90;;;;;;493960;241;27513;-75
2024/02/20 01:29:34;;;;;;;3.42;1.92;;;5.80;99.90;;;;;;493970;241;27534;-73
2024/02/20 01:31:35;;;;;;;2.25;2.00;;;5.80;99.90;;;;;;493933;241;27566;-74
2024/02/20 01:33:36;;;;;;;5.12;2.33;;;5.80;99.90;;;;;;493914;241;27465;-73
2024/02/20 01:35:38;;;;;;;3.85;2.45;;;5.90;99.90;;;;;;493980;241;27981;-73
2024/02/20 01:37:41;;;;;;;4.05;2.10;;;5.90;99.90;;;;;;493954;241;27989;-73
2024/02/20 01:39:40;;;;;;;4.72;2.20;;;5.90;99.90;;;;;;493918;241;27459;-73
2024/02/20 01:41:43;;;;;;;5.03;2.33;;;6.00;99.90;;;;;;493951;241;27524;-72
2024/02/20 01:43:43;;;;;;;6.60;2.10;;;6.00;99.90;;;;;;493971;241;27536;-71
2024/02/20 01:45:45;;;;;;;6.07;2.50;;;6.00;99.90;;;;;;494007;241;27472;-71
2024/02/20 01:47:45;;;;;;;7.03;2.47;;;6.00;99.90;;;;;;493912;241;27510;-71
2024/02/20 01:49:46;;;;;;;6.70;2.60;;;6.00;99.90;;;;;;493981;241;28383;-73
2024/02/20 01:51:48;;;;;;;9.13;2.10;;;6.00;99.90;;;;;;493958;241;27997;-72
2024/02/20 01:53:49;;;;;;;5.15;2.53;;;6.00;99.90;;;;;;493994;241;28096;-72
2024/02/20 01:55:50;;;;;;;8.30;2.20;;;6.00;99.90;;;;;;493978;241;27465;-72
2024/02/20 01:57:51;;;;;;;2.92;2.20;;;5.90;99.90;;;;;;493935;241;27599;-73
2024/02/20 01:59:53;;;;;;;3.30;1.90;;;5.90;99.90;;;;;;493950;241;27507;-73
2024/02/20 02:01:54;;;;;;;8.88;2.47;;;5.80;99.90;;;;;;493972;241;27475;-73
2024/02/20 02:03:55;;;;;;;5.47;1.95;;;5.80;99.90;;;;;;493968;241;27489;-75
2024/02/20 02:05:56;;;;;;;8.45;2.20;;;5.80;99.90;;;;;;493934;241;28006;-72
2024/02/20 02:08:01;;;;;;;5.95;2.65;;;5.70;99.90;;;;;;493920;241;28021;-74
2024/02/20 02:09:59;;;;;;;4.25;2.08;;;5.70;99.90;;;;;;493810;241;27607;-74
2024/02/20 02:12:00;;;;;;;6.53;2.20;;;5.70;99.90;;;;;;493981;241;27561;-71
2024/02/20 02:14:01;;;;;;;4.62;2.40;;;5.70;99.90;;;;;;493971;241;27514;-71
2024/02/20 02:16:03;;;;;;;8.30;2.50;;;5.70;99.90;;;;;;493959;241;27465;-72
2024/02/20 02:18:04;;;;;;;2.65;2.22;;;5.70;99.90;;;;;;493894;238;27958;-74
2024/02/20 02:20:06;;;;;;;4.87;2.10;;;5.70;99.90;;;;;;494005;241;28005;-75
2024/02/20 02:22:06;;;;;;;3.37;1.95;;;5.70;99.90;;;;;;493907;241;27462;-74
2024/02/20 02:24:09;;;;;;;9.13;2.20;;;5.70;99.90;;;;;;493972;241;27507;-74
2024/02/20 02:26:09;;;;;;;5.32;1.98;;;5.70;99.90;;;;;;493933;241;27482;-71
2024/02/20 02:28:10;;;;;;;5.47;2.08;;;5.60;99.90;;;;;;493980;241;27592;-71
2024/02/20 02:30:12;;;;;;;4.75;2.30;;;5.60;99.90;;;;;;494010;241;27509;-72
2024/02/20 02:32:13;;;;;;;4.45;2.47;;;5.60;99.90;;;;;;493806;241;27915;-74
2024/02/20 02:34:14;;;;;;;4.00;2.05;;;5.60;99.90;;;;;;493862;241;28095;-74
2024/02/20 02:36:15;;;;;;;2.80;1.92;;;5.50;99.90;;;;;;493911;241;27513;-73
2024/02/20 02:38:16;;;;;;;2.15;1.77;;;5.50;99.90;;;;;;493939;241;27485;-73
2024/02/20 02:40:18;;;;;;;3.90;2.00;;;5.40;99.90;;;;;;493983;241;27532;-72
2024/02/20 02:42:19;;;;;;;2.03;1.92;;;5.40;99.90;;;;;;493958;241;27600;-73
2024/02/20 02:44:20;;;;;;;5.75;2.35;;;5.30;99.90;;;;;;493967;241;28038;-73
2024/02/20 02:46:22;;;;;;;3.70;2.35;;;5.30;99.90;;;;;;493957;241;28000;-74
2024/02/20 02:48:23;;;;;;;7.68;2.50;;;5.20;99.90;;;;;;494000;241;27903;-73
2024/02/20 02:50:24;;;;;;;3.00;2.05;;;5.10;99.90;;;;;;493981;241;27500;-73
2024/02/20 02:52:25;;;;;;;3.25;2.17;;;5.00;99.90;;;;;;493956;241;27482;-72
2024/02/20 02:54:29;;;;;;;4.90;2.37;;;5.10;99.90;;;;;;494001;241;27986;-74
2024/02/20 02:56:28;;;;;;;5.22;2.20;;;5.00;99.90;;;;;;493880;241;28031;-74
2024/02/20 02:58:29;;;;;;;4.62;2.12;;;5.00;99.90;;;;;;493978;241;27474;-73
2024/02/20 03:00:30;;;;;;;2.97;2.05;;;5.00;99.90;;;;;;493890;241;27499;-74
2024/02/20 03:02:32;;;;;;;3.72;1.92;;;5.00;99.90;;;;;;493987;241;27531;-74
2024/02/20 03:04:33;;;;;;;10.88;2.45;;;5.00;99.90;;;;;;494005;241;27481;-73
2024/02/20 03:06:34;;;;;;;3.70;1.90;;;5.10;99.90;;;;;;493909;241;27561;-73
2024/02/20 03:08:38;;;;;;;2.85;2.20;;;5.10;99.90;;;;;;493971;241;27541;-73
2024/02/20 03:10:37;;;;;;;4.12;2.00;;;5.10;99.90;;;;;;493794;241;28032;-74
2024/02/20 03:12:38;;;;;;;5.35;2.50;;;5.10;99.90;;;;;;493984;241;28055;-75
2024/02/20 03:14:39;;;;;;;2.58;2.12;;;5.10;99.90;;;;;;493971;241;27490;-73
2024/02/20 03:16:40;;;;;;;5.40;2.15;;;5.00;99.90;;;;;;493936;241;27521;-73
2024/02/20 03:18:45;;;;;;;5.05;2.78;;;5.10;99.90;;;;;;493990;241;27477;-73
2024/02/20 03:20:46;;;;;;;3.58;2.08;;;5.10;99.90;;;;;;494026;241;27850;-74
2024/02/20 03:22:47;;;;;;;3.65;1.90;;;5.10;99.90;;;;;;494002;241;27977;-73
2024/02/20 03:24:48;;;;;;;3.20;1.90;;;5.20;99.90;;;;;;493987;241;27525;-75
2024/02/20 03:26:50;;;;;;;5.43;2.20;;;5.20;99.90;;;;;;493914;241;27520;-73
2024/02/20 03:28:51;;;;;;;5.65;2.40;;;5.20;99.90;;;;;;493960;241;27479;-73
2024/02/20 03:30:52;;;;;;;4.50;2.12;;;5.20;99.90;;;;;;493959;241;27504;-74
2024/02/20 03:32:54;;;;;;;4.35;2.58;;;5.30;99.90;;;;;;493954;241;27478;-73
2024/02/20 03:34:55;;;;;;;6.55;2.80;;;5.30;99.90;;;;;;493941;241;27528;-73
2024/02/20 03:36:56;;;;;;;5.50;2.50;;;5.30;99.90;;;;;;493866;241;28181;-73
2024/02/20 03:38:57;;;;;;;3.78;2.40;;;5.30;99.90;;;;;;493981;241;27936;-73
2024/02/20 03:40:58;;;;;;;7.28;2.97;;;5.30;99.90;;;;;;493962;241;27612;-73
2024/02/20 03:43:02;;;;;;;3.45;2.55;;;5.40;99.90;;;;;;493967;241;27476;-73
2024/02/20 03:45:01;;;;;;;7.32;2.50;;;5.30;99.90;;;;;;493864;241;27497;-74
2024/02/20 03:47:02;;;;;;;3.83;2.22;;;5.40;99.90;;;;;;493945;241;27898;-76
2024/02/20 03:49:04;;;;;;;4.25;2.17;;;5.30;99.90;;;;;;493983;241;27470;-73
2024/02/20 03:51:05;;;;;;;6.32;2.40;;;5.30;99.90;;;;;;493988;241;27499;-73
2024/02/20 03:53:06;;;;;;;6.85;2.53;;;5.30;99.90;;;;;;493979;241;27999;-72
2024/02/20 03:55:08;;;;;;;6.28;2.55;;;5.20;99.90;;;;;;494010;241;27958;-73
2024/02/20 03:57:10;;;;;;;4.30;2.50;;;5.30;99.90;;;;;;493873;241;27631;-74
2024/02/20 03:59:10;;;;;;;5.22;2.33;;;5.20;99.90;;;;;;493920;241;27458;-74
2024/02/20 04:01:11;;;;;;;5.43;3.15;;;5.30;99.90;;;;;;493916;237;27525;-74
2024/02/20 04:03:12;;;;;;;9.98;3.08;;;5.30;99.90;;;;;;493920;241;27576;-72
2024/02/20 04:05:14;;;;;;;6.72;3.03;;;5.30;99.90;;;;;;494008;241;27575;-73
2024/02/20 04:07:16;;;;;;;7.35;3.10;;;5.30;99.90;;;;;;493957;241;27556;-73
2024/02/20 04:09:16;;;;;;;11.60;3.30;;;5.30;99.90;;;;;;493947;241;27932;-73
2024/02/20 04:11:17;;;;;;;7.18;2.83;;;5.20;99.90;;;;;;493935;241;28065;-73
2024/02/20 04:13:19;;;;;;;10.50;2.95;;;5.20;99.90;;;;;;493956;237;27629;-74
2024/02/20 04:15:20;;;;;;;12.55;3.20;;;5.20;99.90;;;;;;493988;241;27550;-73
2024/02/20 04:17:21;;;;;;;7.90;2.58;;;5.20;99.90;;;;;;493903;241;27493;-74
2024/02/20 04:19:22;;;;;;;5.85;2.90;;;5.20;99.90;;;;;;493934;241;27469;-73
2024/02/20 04:21:24;;;;;;;8.73;2.60;;;5.20;99.90;;;;;;493973;241;27498;-73
2024/02/20 04:23:26;;;;;;;6.32;3.25;;;5.20;99.90;;;;;;493998;241;28008;-75
2024/02/20 04:25:26;;;;;;;11.05;3.20;;;5.10;99.90;;;;;;493956;237;27470;-73
2024/02/20 04:27:28;;;;;;;4.72;2.60;;;5.00;99.90;;;;;;493645;241;27879;-74
2024/02/20 04:29:29;;;;;;;10.35;3.40;;;5.00;99.90;;;;;;493989;241;27577;-73
2024/02/20 04:31:30;;;;;;;10.93;2.90;;;4.90;99.90;;;;;;493981;241;27459;-72
2024/02/20 04:33:31;;;;;;;6.05;2.78;;;4.80;99.90;;;;;;493953;241;27508;-73
2024/02/20 04:35:33;;;;;;;5.75;2.83;;;4.70;99.90;;;;;;493998;241;27909;-73
2024/02/20 04:37:34;;;;;;;7.40;3.40;;;4.70;99.90;;;;;;493782;241;28110;-73
2024/02/20 04:39:35;;;;;;;5.00;2.80;;;4.70;99.90;;;;;;493783;241;27517;-74
2024/02/20 04:41:36;;;;;;;9.40;3.60;;;4.70;99.90;;;;;;493988;241;27466;-74
2024/02/20 04:43:38;;;;;;;18.62;3.97;;;4.60;99.90;;;;;;493936;241;27504;-74
2024/02/20 04:45:39;;;;;;;4.28;2.80;;;4.60;99.90;;;;;;493898;241;27600;-73
2024/02/20 04:47:40;;;;;;;10.38;3.37;;;4.60;99.90;;;;;;493867;241;27470;-73
2024/02/20 04:49:42;;;;;;;7.57;3.35;;;4.60;99.90;;;;;;493996;241;27510;-74
2024/02/20 04:51:43;;;;;;;7.85;3.35;;;4.70;99.90;;;;;;493942;241;27941;-73
2024/02/20 04:53:44;;;;;;;8.75;3.53;;;4.70;99.90;;;;;;493930;241;28104;-73
2024/02/20 04:55:45;;;;;;;16.67;3.83;;;4.70;99.90;;;;;;493995;241;28711;-73
2024/02/20 04:57:46;;;;;;;15.02;4.15;;;4.70;99.90;;;;;;493919;241;27464;-74
2024/02/20 04:59:48;;;;;;;15.00;4.18;;;4.70;99.90;;;;;;493988;241;27502;-73
2024/02/20 05:01:49;;;;;;;5.57;3.10;;;4.70;99.90;;;;;;493946;241;27516;-73
2024/02/20 05:03:50;;;;;;;5.80;3.70;;;4.70;99.90;;;;;;493947;241;27521;-73
2024/02/20 05:05:51;;;;;;;9.13;4.00;;;4.80;99.90;;;;;;493989;241;27545;-74
2024/02/20 05:07:53;;;;;;;16.62;5.75;;;4.80;99.90;;;;;;493921;241;27947;-73
2024/02/20 05:09:54;;;;;;;14.30;5.07;;;4.70;99.90;;;;;;493900;241;28081;-74
2024/02/20 05:11:55;;;;;;;9.13;3.62;;;4.70;99.90;;;;;;493967;241;27469;-73
2024/02/20 05:13:56;;;;;;;13.38;4.30;;;4.70;99.90;;;;;;493976;241;27497;-73
2024/02/20 05:15:58;;;;;;;12.52;4.20;;;4.70;99.90;;;;;;494004;241;27601;-74
2024/02/20 05:17:59;;;;;;;9.25;4.62;;;4.70;99.90;;;;;;493859;241;27517;-73
2024/02/20 05:20:00;;;;;;;13.30;4.15;;;4.70;99.90;;;;;;493892;241;27530;-73
2024/02/20 05:22:01;;;;;;;12.68;4.30;;;4.70;99.90;;;;;;493897;241;28037;-73
2024/02/20 05:24:03;;;;;;;16.85;4.70;;;4.80;99.90;;;;;;493977;241;28119;-73
2024/02/20 05:26:04;;;;;;;9.85;4.22;;;4.70;99.90;;;;;;493956;241;27517;-73
2024/02/20 05:28:05;;;;;;;12.40;4.25;;;4.70;99.90;;;;;;493902;241;27465;-73
2024/02/20 05:30:06;;;;;;;10.23;4.68;;;4.70;99.90;;;;;;493959;241;27501;-73
2024/02/20 05:32:08;;;;;;;9.02;4.55;;;4.70;99.90;;;;;;493987;241;27870;-75
2024/02/20 05:34:09;;;;;;;8.00;3.55;;;4.70;99.90;;;;;;493968;241;28059;-73
2024/02/20 05:36:10;;;;;;;12.90;5.25;;;4.70;99.90;;;;;;493946;241;27998;-73
2024/02/20 05:38:12;;;;;;;6.97;4.00;;;4.70;99.90;;;;;;493912;241;27459;-73
2024/02/20 05:40:13;;;;;;;11.98;4.70;;;4.70;99.90;;;;;;493992;241;27558;-73
2024/02/20 05:42:14;;;;;;;9.07;3.85;;;4.70;99.90;;;;;;493962;241;27525;-75
2024/02/20 05:44:15;;;;;;;10.18;4.82;;;4.70;99.90;;;;;;493864;241;27483;-73
2024/02/20 05:46:17;;;;;;;12.00;4.53;;;4.70;99.90;;;;;;493911;237;27624;-74
2024/02/20 05:48:18;;;;;;;15.25;4.93;;;4.70;99.90;;;;;;493845;241;27533;-73
2024/02/20 05:50:19;;;;;;;13.90;5.47;;;4.70;99.90;;;;;;493961;241;27962;-74
2024/02/20 05:52:20;;;;;;;11.85;5.18;;;4.70;99.90;;;;;;493942;241;28037;-74
2024/02/20 05:54:22;;;;;;;9.80;4.53;;;4.70;99.90;;;;;;493895;241;27486;-73
2024/02/20 05:56:23;;;;;;;15.07;6.12;;;4.70;99.90;;;;;;493766;241;27606;-73
2024/02/20 05:58:24;;;;;;;13.55;5.40;;;4.70;99.90;;;;;;493950;241;27968;-74
2024/02/20 06:00:25;;;;;;;16.52;6.80;;;4.80;99.90;;;;;;493948;241;27565;-73
2024/02/20 06:02:27;;;;;;;9.93;4.93;;;4.80;99.90;;;;;;493933;241;27625;-74
2024/02/20 06:04:28;;;;;;;10.55;5.25;;;4.80;99.90;;;;;;493946;241;27904;-73
2024/02/20 06:06:29;;;;;;;15.80;5.93;;;4.90;99.90;;;;;;493868;241;28109;-73
2024/02/20 06:08:30;;;;;;;13.95;5.12;;;4.80;99.90;;;;;;493977;241;27498;-75
2024/02/20 06:10:32;;;;;;;13.13;6.28;;;4.90;99.90;;;;;;493972;241;27475;-73
2024/02/20 06:12:33;;;;;;;13.23;5.85;;;4.90;99.90;;;;;;493951;241;27497;-73
2024/02/20 06:14:34;;;;;;;12.93;5.57;;;4.90;99.90;;;;;;493938;241;27462;-74
2024/02/20 06:16:35;;;;;;;23.33;6.57;;;5.00;99.90;;;;;;493945;241;27597;-73
2024/02/20 06:18:37;;;;;;;21.02;6.70;;;5.00;99.90;;;;;;493986;241;27993;-74
2024/02/20 06:20:40;;;;;;;20.30;6.72;;;5.00;99.90;;;;;;493993;241;27933;-74
2024/02/20 06:22:39;;;;;;;17.80;6.60;;;5.00;99.90;;;;;;493895;241;27498;-73
2024/02/20 06:24:40;;;;;;;16.40;6.75;;;4.90;99.90;;;;;;493980;237;27489;-75
2024/02/20 06:26:42;;;;;;;21.40;7.65;;;5.00;99.90;;;;;;493963;241;27613;-74
2024/02/20 06:28:43;;;;;;;21.83;7.55;;;5.00;99.90;;;;;;493984;241;27554;-73
2024/02/20 06:30:46;;;;;;;18.95;8.18;;;5.00;99.90;;;;;;493987;241;27493;-73
2024/02/20 06:32:45;;;;;;;23.42;8.25;;;5.00;99.90;;;;;;493949;241;27983;-73
2024/02/20 06:34:47;;;;;;;17.27;8.70;;;5.00;99.90;;;;;;494009;241;28498;-74
2024/02/20 06:36:48;;;;;;;19.02;7.22;;;5.00;99.90;;;;;;493857;241;27543;-73
2024/02/20 06:38:49;;;;;;;15.80;6.95;;;5.00;99.90;;;;;;493902;241;27505;-74
2024/02/20 06:40:51;;;;;;;17.42;7.28;;;5.00;99.90;;;;;;493921;241;27484;-73
2024/02/20 06:42:52;;;;;;;19.08;8.77;;;5.10;99.90;;;;;;493952;241;27473;-73
2024/02/20 06:44:53;;;;;;;12.80;6.65;;;5.10;99.90;;;;;;493966;241;27529;-74
2024/02/20 06:46:54;;;;;;;17.95;7.32;;;5.10;99.90;;;;;;493897;241;27929;-73
2024/02/20 06:48:56;;;;;;;17.02;8.43;;;5.20;99.90;;;;;;493921;241;27978;-74
2024/02/20 06:50:57;;;;;;;24.92;9.20;;;5.20;99.90;;;;;;493997;241;27494;-75
2024/02/20 06:52:58;;;;;;;29.35;10.13;;;5.20;99.90;;;;;;493981;241;27576;-73
2024/02/20 06:54:59;;;;;;;20.65;9.65;;;5.20;99.90;;;;;;493933;241;27527;-73
2024/02/20 06:57:01;;;;;;;17.12;9.50;;;5.20;99.90;;;;;;493916;241;27481;-73
2024/02/20 06:59:02;;;;;;;28.98;11.12;;;5.20;99.90;;;;;;493932;241;27969;-73
2024/02/20 07:01:03;;;;;;;18.58;9.30;;;5.20;99.90;;;;;;494001;241;27995;-75
2024/02/20 07:03:04;;;;;;;21.95;10.43;;;5.20;99.90;;;;;;493946;241;27479;-74
2024/02/20 07:05:06;;;;;;;20.75;10.05;;;5.20;99.90;;;;;;493951;240;27496;-74
2024/02/20 07:07:07;;;;;;;18.05;9.80;;;5.20;99.90;;;;;;493856;241;27466;-73
2024/02/20 07:09:08;;;;;;;25.05;10.00;;;5.20;99.90;;;;;;493961;241;27580;-74
2024/02/20 07:11:13;;;;;;;17.90;10.18;;;5.20;99.90;;;;;;493959;241;28001;-74
2024/02/20 07:13:14;;;;;;;16.33;9.40;;;5.30;99.90;;;;;;493955;241;27521;-73
2024/02/20 07:15:15;;;;;;;18.17;9.75;;;5.30;99.90;;;;;;493936;241;27474;-72
2024/02/20 07:17:16;;;;;;;23.05;10.77;;;5.40;99.90;;;;;;493864;241;27501;-73
2024/02/20 07:19:21;;;;;;;23.77;11.73;;;5.40;99.90;;;;;;493985;241;27552;-74
2024/02/20 07:21:19;;;;;;;17.87;11.20;;;5.50;99.90;;;;;;493858;241;27489;-74
2024/02/20 07:23:20;;;;;;;21.20;11.88;;;5.50;99.90;;;;;;493923;241;28083;-73
2024/02/20 07:25:22;;;;;;;21.73;9.90;;;5.50;99.90;;;;;;493931;241;27599;-74
2024/02/20 07:27:22;;;;;;;21.17;11.35;;;5.50;99.90;;;;;;493860;241;27579;-73
2024/02/20 07:29:24;;;;;;;21.87;10.60;;;5.60;99.90;;;;;;493952;241;27516;-74
2024/02/20 07:31:25;;;;;;;20.02;11.05;;;5.70;99.90;;;;;;493962;241;27553;-73
2024/02/20 07:33:26;;;;;;;23.83;11.90;;;5.80;99.90;;;;;;493928;241;27954;-73
2024/02/20 07:35:28;;;;;;;33.60;12.93;;;5.90;99.90;;;;;;493973;237;27533;-75
2024/02/20 07:37:29;;;;;;;23.87;11.90;;;6.00;99.90;;;;;;493921;241;27513;-73
2024/02/20 07:39:30;;;;;;;23.48;12.35;;;6.00;99.90;;;;;;493902;241;27521;-73
2024/02/20 07:41:31;;;;;;;25.55;11.77;;;6.00;99.90;;;;;;493952;241;27453;-73
2024/02/20 07:43:33;;;;;;;20.30;11.12;;;6.00;99.90;;;;;;493963;241;28037;-73
2024/02/20 07:45:34;;;;;;;25.95;11.43;;;6.00;99.90;;;;;;493978;241;27583;-74
2024/02/20 07:47:35;;;;;;;26.05;13.00;;;6.00;99.90;;;;;;493891;241;27472;-73
2024/02/20 07:49:36;;;;;;;24.55;11.77;;;6.10;99.90;;;;;;493920;241;27500;-73
2024/02/20 07:51:38;;;;;;;23.30;13.32;;;6.20;99.90;;;;;;493988;241;27583;-74
2024/02/20 07:53:39;;;;;;;23.00;12.48;;;6.20;99.90;;;;;;493969;241;28079;-72
2024/02/20 07:55:41;;;;;;;20.33;10.18;;;6.30;99.90;;;;;;493935;241;27537;-74
2024/02/20 07:57:41;;;;;;;20.48;11.70;;;6.40;99.90;;;;;;493820;241;27557;-73
2024/02/20 07:59:43;;;;;;;26.43;11.47;;;6.50;99.90;;;;;;493977;241;27596;-73
2024/02/20 08:01:44;;;;;;;22.27;11.70;;;6.60;99.90;;;;;;493819;241;28714;-74
2024/02/20 08:03:45;;;;;;;28.40;12.77;;;6.60;99.90;;;;;;493919;241;27937;-73
2024/02/20 08:05:47;;;;;;;25.10;11.10;;;6.60;99.90;;;;;;493973;241;27525;-72
2024/02/20 08:07:48;;;;;;;31.77;12.57;;;6.50;99.90;;;;;;493854;237;28957;-73
2024/02/20 08:09:55;;;;;;;36.47;13.57;;;6.50;99.90;;;;;;493993;237;27520;-73
2024/02/20 08:11:50;;;;;;;23.53;12.47;;;6.50;99.90;;;;;;493748;241;28539;-74
2024/02/20 08:13:52;;;;;;;27.77;13.40;;;6.60;99.90;;;;;;493931;241;27729;-73
2024/02/20 08:15:53;;;;;;;25.23;12.00;;;6.60;99.90;;;;;;493900;237;28495;-74
2024/02/20 08:17:54;;;;;;;23.03;12.10;;;6.50;99.90;;;;;;493933;237;28496;-76
2024/02/20 08:19:55;;;;;;;25.33;13.77;;;6.60;99.90;;;;;;493985;241;28024;-73
2024/02/20 08:21:57;;;;;;;32.83;14.37;;;6.60;99.90;;;;;;493933;241;28562;-74
2024/02/20 08:24:01;;;;;;;26.40;13.27;;;6.60;99.90;;;;;;493944;241;28712;-73
2024/02/20 08:25:59;;;;;;;31.40;13.50;;;6.60;99.90;;;;;;493796;241;27514;-73
2024/02/20 08:28:00;;;;;;;24.80;12.97;;;6.70;99.90;;;;;;493925;241;28069;-75
2024/02/20 08:30:02;;;;;;;21.50;11.53;;;6.80;99.90;;;;;;493981;241;28275;-73
2024/02/20 08:32:03;;;;;;;25.77;13.57;;;6.80;99.90;;;;;;494007;241;28527;-73
2024/02/20 08:34:04;;;;;;;26.40;13.90;;;6.90;99.90;;;;;;493962;241;29363;-72
2024/02/20 08:36:05;;;;;;;31.10;12.30;;;6.90;99.90;;;;;;494016;241;28798;-74
2024/02/20 08:38:07;;;;;;;31.03;12.63;;;7.00;99.90;;;;;;493895;241;28234;-74
2024/02/20 08:40:08;;;;;;;26.63;12.60;;;7.10;99.90;;;;;;493984;241;27571;-73
2024/02/20 08:42:09;;;;;;;23.10;11.57;;;7.10;99.90;;;;;;493968;238;28017;-74
2024/02/20 08:44:10;;;;;;;22.90;10.97;;;7.20;99.90;;;;;;493992;241;28227;-76
2024/02/20 08:46:12;;;;;;;38.37;13.63;;;7.20;99.90;;;;;;493968;241;27946;-74
2024/02/20 08:48:13;;;;;;;23.73;12.23;;;7.30;99.90;;;;;;493857;241;28309;-74
2024/02/20 08:50:16;;;;;;;30.83;11.97;;;7.30;99.90;;;;;;493970;241;28517;-73
2024/02/20 08:52:15;;;;;;;21.17;11.00;;;7.40;99.90;;;;;;493864;241;28085;-73
2024/02/20 08:54:17;;;;;;;22.67;12.33;;;7.30;99.90;;;;;;494024;241;27702;-75
2024/02/20 08:56:18;;;;;;;25.67;11.60;;;7.30;99.90;;;;;;493973;241;27957;-74
2024/02/20 08:58:20;;;;;;;23.90;12.37;;;7.40;99.90;;;;;;493951;241;28015;-74
2024/02/20 09:00:22;;;;;;;26.83;12.57;;;7.40;99.90;;;;;;493943;241;28011;-73
2024/02/20 09:02:22;;;;;;;32.17;13.90;;;7.40;99.90;;;;;;493953;241;27984;-73
2024/02/20 09:04:26;;;;;;;22.87;11.77;;;7.40;99.90;;;;;;493978;241;27867;-75
2024/02/20 09:06:24;;;;;;;24.30;12.07;;;7.50;99.90;;;;;;493805;241;28355;-75
2024/02/20 09:08:25;;;;;;;20.40;10.40;;;7.50;99.90;;;;;;493966;241;28162;-73
2024/02/20 09:10:27;;;;;;;27.37;12.37;;;7.70;99.90;;;;;;494014;241;29264;-74
2024/02/20 09:12:28;;;;;;;25.90;12.67;;;7.70;99.90;;;;;;493990;241;27892;-74
2024/02/20 09:14:29;;;;;;;35.70;13.30;;;7.70;99.90;;;;;;494001;239;27629;-74
2024/02/20 09:16:30;;;;;;;26.27;12.10;;;7.60;99.90;;;;;;493911;237;28052;-74
2024/02/20 09:18:32;;;;;;;22.87;12.13;;;7.60;99.90;;;;;;493937;241;27747;-74
2024/02/20 09:20:35;;;;;;;23.27;11.30;;;7.70;99.90;;;;;;493962;241;28400;-76
2024/02/20 09:22:36;;;;;;;28.97;14.10;;;7.70;99.90;;;;;;493876;241;28132;-74
2024/02/20 09:24:36;;;;;;;23.90;12.60;;;7.70;99.90;;;;;;493947;241;27697;-73
2024/02/20 09:26:37;;;;;;;22.80;12.40;;;7.50;99.90;;;;;;493946;241;29156;-73
2024/02/20 09:28:38;;;;;;;25.03;12.60;;;7.50;99.90;;;;;;494009;241;28423;-73
2024/02/20 09:30:39;;;;;;;22.70;11.30;;;7.40;99.90;;;;;;493993;241;27980;-75
2024/02/20 09:32:43;;;;;;;30.20;13.13;;;7.30;99.90;;;;;;493981;241;28052;-74
2024/02/20 09:34:43;;;;;;;20.83;10.40;;;7.40;99.90;;;;;;493889;237;28097;-73
2024/02/20 09:36:44;;;;;;;25.20;11.37;;;7.40;99.90;;;;;;493870;241;28353;-73
2024/02/20 09:38:44;;;;;;;32.97;11.73;;;7.50;99.90;;;;;;493994;237;27926;-74
2024/02/20 09:40:46;;;;;;;29.50;11.20;;;7.60;99.90;;;;;;493989;241;28008;-74
2024/02/20 09:42:48;;;;;;;24.33;11.23;;;7.70;99.90;;;;;;493962;237;27919;-74
2024/02/20 09:44:48;;;;;;;27.13;11.53;;;7.90;99.90;;;;;;493891;241;27984;-73
2024/02/20 09:46:49;;;;;;;23.50;10.90;;;8.00;99.90;;;;;;493973;241;27962;-76
2024/02/20 09:48:51;;;;;;;19.60;10.50;;;8.20;99.90;;;;;;493985;241;27701;-73
2024/02/20 09:50:52;;;;;;;29.90;11.53;;;8.20;99.90;;;;;;493978;241;28053;-73
2024/02/20 09:52:56;;;;;;;20.67;10.87;;;8.20;99.90;;;;;;493974;241;27464;-73
2024/02/20 09:54:57;;;;;;;26.10;12.80;;;8.20;99.90;;;;;;494020;241;27634;-73
2024/02/20 09:56:59;;;;;;;20.73;9.90;;;8.00;99.90;;;;;;493976;241;27744;-74
2024/02/20 09:59:00;;;;;;;23.53;11.23;;;8.00;99.90;;;;;;493989;241;28109;-75
2024/02/20 10:01:01;;;;;;;27.80;11.07;;;7.90;99.90;;;;;;493954;241;27836;-74
2024/02/20 10:03:03;;;;;;;24.00;10.07;;;7.90;99.90;;;;;;493955;241;28110;-74
2024/02/20 10:05:05;;;;;;;28.10;10.53;;;8.00;99.90;;;;;;493961;241;27843;-76
2024/02/20 10:07:05;;;;;;;21.27;11.20;;;8.20;99.90;;;;;;493904;241;27482;-74
2024/02/20 10:09:06;;;;;;;24.73;10.67;;;8.20;99.90;;;;;;493900;241;28071;-77
2024/02/20 10:11:07;;;;;;;22.00;11.13;;;8.20;99.90;;;;;;493953;241;27446;-74
2024/02/20 10:13:09;;;;;;;18.10;8.90;;;8.40;99.90;;;;;;494009;241;28075;-74
2024/02/20 10:15:10;;;;;;;26.83;9.90;;;8.40;99.90;;;;;;493994;241;28021;-75
2024/02/20 10:17:11;;;;;;;24.50;10.93;;;8.40;99.90;;;;;;493921;241;27950;-74
2024/02/20 10:19:13;;;;;;;24.20;9.87;;;8.50;99.90;;;;;;493927;241;27769;-74
2024/02/20 10:21:14;;;;;;;26.40;11.20;;;8.50;99.90;;;;;;493997;237;28557;-76
2024/02/20 10:23:15;;;;;;;26.23;10.07;;;8.50;99.90;;;;;;493982;241;28488;-74
2024/02/20 10:25:16;;;;;;;26.97;9.37;;;8.60;99.90;;;;;;494006;241;28570;-75
2024/02/20 10:27:17;;;;;;;19.83;9.27;;;8.70;99.90;;;;;;493942;241;27799;-74
2024/02/20 10:29:19;;;;;;;23.33;9.77;;;8.70;99.90;;;;;;494013;239;28068;-74
2024/02/20 10:31:20;;;;;;;22.50;8.33;;;8.90;99.90;;;;;;494056;241;27973;-75